Terminal Aerodrome Forecast
Issued by NWS Binghamton, NY

Home | Current Version | Previous Version | Text Only | Print | Product List | Glossary On
Versions: 1 2 3 4 5 6 7 8 9 10 11 12 13 14 15 16 17
000
FTUS41 KBGM 121140
TAFAVP
TAF
KAVP 121140Z 1212/1312 17007KT P6SM OVC040
      TEMPO 1212/1213 3SM -SN OVC020
     FM121400 21008KT P6SM OVC040
     FM121700 23007G14KT P6SM OVC025
      TEMPO 1220/1222 27012G20KT 2SM -SHSNRA OVC012
     FM122200 29013G24KT P6SM OVC030
     FM130000 29014G26KT P6SM BKN040=

USA.gov is the U.S. government's official web portal to all federal, state and local government web resources and services.